02:04 Rennrad Moetz - Zirl - Silz - Apfelstrasse - Haiming - Silz - Moetz
Ort Moetz Datum 12.06.2016 13:38:10
Kategorie Rennrad
Distanz 65,18 Kilometer Steigung 172,0 Meter Gefälle -158,0 Meter
Gesamt Zeit 02:04:15 Aktiv 02:04:15 Pause 00:00:00
Durchs. Tempo 31,5 km/h Tempo max. 40,3 km/h Tempo min. 19,9 km/h
Kalorien 0 Durchs. HF 125 BPM HF max. 157 BPM
Wetter 24 °C PartClouds Min/Max: 23,3 °C/24,4 °C; Druck: 1008,5 mbar; Rel. Feuchte: 43,7%; Taupunkt: 10,4 °C; Windgeschwindigkeit: 4,6 km/h; Niederschlag: 0,2mm
Ausrüstung Bontrager - RXL Road
Continental - Grand Prix 4000 S II 25-622
Poison - Rennrad
Shimano - HG CN-7901 Dura Ace
Notiz Moetz - Zirl - Silz - Apfelstrasse - Haiming - Silz - Moetz ... trocken, tw. ziemlich windig, eher locker ... garmin connect
Splits
Distanz (km) Gesamt Zeit Split Zeit Split Tempo Split Tempo Höhenprofil (m)
1,00 00:02:12 00:02:12 00:02:12 27,2 -9,88
2,00 00:04:06 00:01:54 00:01:55 31,4 0,14
3,00 00:05:52 00:01:45 00:01:46 34,1 -0,59
4,00 00:07:38 00:01:45 00:01:46 34,0 -3,92
5,00 00:09:23 00:01:45 00:01:45 34,1 0,58
6,00 00:11:11 00:01:47 00:01:47 33,5 -0,33
7,00 00:12:56 00:01:45 00:01:45 34,2 -0,97
8,00 00:14:34 00:01:37 00:01:37 37,0 -7,58
9,00 00:16:18 00:01:44 00:01:45 34,4 -2,78
10,00 00:18:05 00:01:46 00:01:47 33,7 0,64
11,00 00:19:47 00:01:41 00:01:42 35,4 0,68
12,00 00:21:36 00:01:49 00:01:49 33,0 -6,50
13,00 00:23:28 00:01:51 00:01:52 32,2 -0,18
14,00 00:25:20 00:01:51 00:01:52 32,2 0,28
15,00 00:27:12 00:01:52 00:01:53 31,9 -5,18
16,00 00:29:01 00:01:48 00:01:49 33,1 3,86
17,00 00:30:50 00:01:49 00:01:49 32,9 -7,99
18,00 00:32:39 00:01:48 00:01:49 33,1 0,00
19,00 00:34:30 00:01:50 00:01:51 32,6 -0,53
20,00 00:36:18 00:01:48 00:01:49 33,2 -0,89
21,00 00:38:10 00:01:51 00:01:51 32,3 -3,36
22,00 00:39:58 00:01:47 00:01:48 33,4 -4,41
23,00 00:41:56 00:01:58 00:01:58 30,4 11,47
24,00 00:43:51 00:01:55 00:01:55 31,2 -1,27
25,00 00:45:46 00:01:55 00:01:55 31,3 2,63
26,00 00:47:27 00:01:40 00:01:41 35,7 -12,38
27,00 00:49:21 00:01:53 00:01:53 31,8 4,39
28,00 00:51:14 00:01:53 00:01:53 31,7 3,25
29,00 00:53:11 00:01:56 00:01:57 30,9 0,53
30,00 00:55:07 00:01:56 00:01:56 31,0 0,57
31,00 00:57:03 00:01:56 00:01:56 31,0 0,00
32,00 00:58:59 00:01:55 00:01:56 31,1 8,06
33,00 01:00:58 00:01:59 00:02:00 30,1 -3,59
34,00 01:02:50 00:01:52 00:01:52 32,1 5,13
35,00 01:04:48 00:01:57 00:01:57 30,7 -0,52
36,00 01:06:42 00:01:54 00:01:54 31,5 0,25
37,00 01:08:38 00:01:55 00:01:56 31,1 6,65
38,00 01:10:46 00:02:08 00:02:09 28,0 -1,29
39,00 01:12:40 00:01:53 00:01:54 31,6 -0,32
40,00 01:14:35 00:01:54 00:01:55 31,3 2,78
41,00 01:16:37 00:02:01 00:02:02 29,6 7,44
42,00 01:18:38 00:02:00 00:02:01 29,8 0,87
43,00 01:20:40 00:02:02 00:02:02 29,5 0,38
44,00 01:22:39 00:01:59 00:01:59 30,3 -0,37
45,00 01:24:38 00:01:58 00:01:59 30,3 4,00
46,00 01:26:36 00:01:57 00:01:58 30,5 0,52
47,00 01:28:38 00:02:02 00:02:02 29,5 -0,04
48,00 01:30:39 00:02:00 00:02:01 29,8 4,51
49,00 01:32:32 00:01:53 00:01:53 31,8 -2,44
50,00 01:34:37 00:02:04 00:02:05 28,9 6,56
51,00 01:36:41 00:02:04 00:02:05 28,9 8,94
52,00 01:38:44 00:02:02 00:02:02 29,4 -1,03
53,00 01:40:44 00:02:00 00:02:01 29,8 1,60
54,00 01:42:44 00:01:59 00:02:00 30,0 4,07
55,00 01:44:53 00:02:08 00:02:08 28,0 3,65
56,00 01:47:13 00:02:20 00:02:20 25,7 6,31
57,00 01:49:18 00:02:05 00:02:06 28,6 5,43
58,00 01:51:06 00:01:48 00:01:48 33,3 -6,21
59,00 01:52:52 00:01:45 00:01:46 34,1 -1,68
60,00 01:54:37 00:01:44 00:01:44 34,5 -6,27
61,00 01:56:19 00:01:42 00:01:42 35,2 -6,22
62,00 01:57:59 00:01:39 00:01:40 36,1 -8,81
63,00 01:59:47 00:01:48 00:01:48 33,2 -7,70
64,00 02:01:33 00:01:45 00:01:46 34,0 -1,41
65,00 02:03:39 00:02:05 00:02:06 28,6 15,01
65,26 02:04:15 00:00:35 00:02:17 26,3 -4,32